Time;durP1;ratioP1;P1;durP2;ratioP2;P2;SDS_P1;SDS_P2;PMS_P1;PMS_P2;Temp;Humidity;BMP_temperature;BMP_pressure;BME280_temperature;BME280_humidity;BME280_pressure;Samples;Min_cycle;Max_cycle;Signal;HPM_P1;HPM_P2
2024/04/05 00:00:13;;;;;;;130.73;78.85;;;;;;;;;;4981557;28;20031;-66
2024/04/05 00:02:41;;;;;;;130.70;80.78;;;;;;;;;;4978741;28;20506;-66
2024/04/05 00:05:09;;;;;;;131.32;79.88;;;;;;;;;;4978247;28;20046;-66
2024/04/05 00:07:36;;;;;;;124.38;76.63;;;;;;;;;;4978377;28;20325;-66
2024/04/05 00:10:02;;;;;;;124.00;77.97;;;;;;;;;;4980059;28;20514;-66
2024/04/05 00:12:28;;;;;;;127.93;77.03;;;;;;;;;;4980380;28;20038;-66
2024/04/05 00:14:54;;;;;;;127.45;78.53;;;;;;;;;;4978461;28;20049;-66
2024/04/05 00:17:20;;;;;;;122.82;72.88;;;;;;;;;;4978300;28;20027;-65
2024/04/05 00:19:46;;;;;;;119.18;74.10;;;;;;;;;;4978706;28;20102;-65
2024/04/05 00:22:12;;;;;;;116.68;73.75;;;;;;;;;;4981291;28;20453;-66
2024/04/05 00:24:38;;;;;;;127.03;76.97;;;;;;;;;;4979411;28;20101;-65
2024/04/05 00:27:04;;;;;;;117.25;72.13;;;;;;;;;;4978242;28;20057;-65
2024/04/05 00:29:30;;;;;;;116.95;72.57;;;;;;;;;;4978581;28;20134;-65
2024/04/05 00:31:56;;;;;;;114.00;70.13;;;;;;;;;;4978592;28;20535;-66
2024/04/05 00:34:22;;;;;;;115.57;71.47;;;;;;;;;;4980811;28;20029;-65
2024/04/05 00:36:48;;;;;;;112.90;70.82;;;;;;;;;;4977583;28;20026;-66
2024/04/05 00:39:13;;;;;;;114.38;70.07;;;;;;;;;;4977655;28;20023;-66
2024/04/05 00:41:39;;;;;;;108.93;69.47;;;;;;;;;;4977229;28;20029;-66
2024/04/05 00:44:06;;;;;;;117.60;71.25;;;;;;;;;;4979878;28;20459;-64
2024/04/05 00:46:34;;;;;;;106.88;66.25;;;;;;;;;;4978977;28;20055;-66
2024/04/05 00:49:00;;;;;;;118.22;68.47;;;;;;;;;;4976641;28;20479;-67
2024/04/05 00:51:27;;;;;;;110.82;68.07;;;;;;;;;;4977116;28;20037;-67
2024/04/05 00:53:53;;;;;;;114.28;66.03;;;;;;;;;;4978197;28;20045;-66
2024/04/05 00:56:21;;;;;;;102.50;62.08;;;;;;;;;;4980529;28;20030;-64
2024/04/05 00:58:47;;;;;;;105.90;60.70;;;;;;;;;;4980921;28;20089;-66
2024/04/05 01:01:15;;;;;;;102.45;61.50;;;;;;;;;;4977127;28;20106;-63
2024/04/05 01:03:41;;;;;;;108.00;59.05;;;;;;;;;;4979769;28;20026;-65
2024/04/05 01:06:07;;;;;;;94.80;56.90;;;;;;;;;;4980541;28;20022;-67
2024/04/05 01:08:33;;;;;;;94.22;54.60;;;;;;;;;;4978944;28;20022;-67
2024/04/05 01:10:59;;;;;;;90.63;54.65;;;;;;;;;;4977075;28;20026;-67
2024/04/05 01:13:25;;;;;;;91.05;55.13;;;;;;;;;;4976854;28;20498;-67
2024/04/05 01:15:52;;;;;;;83.30;50.05;;;;;;;;;;4977512;28;20031;-67
2024/04/05 01:18:18;;;;;;;84.47;50.95;;;;;;;;;;4980175;28;20069;-67
2024/04/05 01:20:44;;;;;;;77.85;47.58;;;;;;;;;;4977260;28;20391;-67
2024/04/05 01:23:11;;;;;;;87.32;48.92;;;;;;;;;;4983596;28;20101;-67
2024/04/05 01:25:37;;;;;;;76.93;47.25;;;;;;;;;;4981560;28;20031;-67
2024/04/05 01:28:04;;;;;;;78.53;46.42;;;;;;;;;;4979259;28;20073;-67
2024/04/05 01:30:30;;;;;;;73.35;46.70;;;;;;;;;;4978822;28;20106;-67
2024/04/05 01:32:57;;;;;;;75.20;44.15;;;;;;;;;;4976408;28;20102;-67
2024/04/05 01:35:24;;;;;;;71.72;42.00;;;;;;;;;;4976523;28;20058;-67
2024/04/05 01:37:50;;;;;;;67.13;41.53;;;;;;;;;;4976692;28;20045;-66
2024/04/05 01:40:16;;;;;;;65.05;39.67;;;;;;;;;;4979784;28;20458;-67
2024/04/05 01:42:42;;;;;;;65.22;40.75;;;;;;;;;;4976843;28;20102;-67
2024/04/05 01:45:08;;;;;;;63.80;39.97;;;;;;;;;;4976385;28;20057;-66
2024/04/05 01:47:34;;;;;;;61.42;38.85;;;;;;;;;;4976012;28;20340;-67
2024/04/05 01:50:00;;;;;;;61.88;37.38;;;;;;;;;;4977855;28;20089;-67
2024/04/05 01:52:26;;;;;;;58.22;35.83;;;;;;;;;;4978647;28;20027;-67
2024/04/05 01:54:52;;;;;;;54.03;33.67;;;;;;;;;;4976283;28;20392;-67
2024/04/05 01:57:18;;;;;;;57.50;34.30;;;;;;;;;;4975727;28;20651;-68
2024/04/05 01:59:51;;;;;;;55.85;34.00;;;;;;;;;;4976019;28;20050;-67
2024/04/05 02:02:18;;;;;;;54.25;33.38;;;;;;;;;;4986698;28;20045;-69
2024/04/05 02:04:44;;;;;;;54.75;33.60;;;;;;;;;;4976328;28;20502;-67
2024/04/05 02:07:10;;;;;;;51.35;31.52;;;;;;;;;;4976022;28;20109;-67
2024/04/05 02:09:36;;;;;;;50.90;30.58;;;;;;;;;;4975791;28;20038;-68
2024/04/05 02:12:03;;;;;;;45.95;29.55;;;;;;;;;;4977448;28;20034;-67
2024/04/05 02:14:29;;;;;;;45.30;29.27;;;;;;;;;;5004499;28;20026;-67
2024/04/05 02:16:55;;;;;;;46.92;29.35;;;;;;;;;;4975374;28;20034;-66
2024/04/05 02:19:21;;;;;;;47.85;27.58;;;;;;;;;;4975778;28;20015;-69
2024/04/05 02:21:47;;;;;;;39.83;25.85;;;;;;;;;;4975486;28;20035;-68
2024/04/05 02:24:13;;;;;;;44.00;27.65;;;;;;;;;;4978905;28;20076;-66
2024/04/05 02:26:39;;;;;;;41.20;25.00;;;;;;;;;;4976405;28;20026;-66
2024/04/05 02:29:06;;;;;;;40.42;24.67;;;;;;;;;;4976239;28;20057;-67
2024/04/05 02:31:32;;;;;;;39.45;24.17;;;;;;;;;;4975250;28;20022;-65
2024/04/05 02:33:58;;;;;;;42.42;25.48;;;;;;;;;;4977180;28;20072;-67
2024/04/05 02:36:24;;;;;;;37.17;23.90;;;;;;;;;;4978296;28;20035;-67
2024/04/05 02:38:50;;;;;;;37.28;23.83;;;;;;;;;;4975623;28;20081;-67
2024/04/05 02:41:17;;;;;;;37.40;23.40;;;;;;;;;;4975601;28;20146;-65
2024/04/05 02:43:43;;;;;;;38.78;22.80;;;;;;;;;;4975358;28;20026;-66
2024/04/05 02:46:09;;;;;;;38.20;21.25;;;;;;;;;;4978156;28;20018;-67
2024/04/05 02:48:34;;;;;;;35.65;21.42;;;;;;;;;;5003325;28;20109;-67
2024/04/05 02:51:00;;;;;;;32.83;20.70;;;;;;;;;;4975330;28;20127;-66
2024/04/05 02:53:27;;;;;;;31.77;19.52;;;;;;;;;;4975208;28;20027;-66
2024/04/05 02:55:53;;;;;;;32.17;20.33;;;;;;;;;;4976178;28;20034;-65
2024/04/05 02:58:19;;;;;;;30.25;19.98;;;;;;;;;;4978542;28;20109;-67
2024/04/05 03:00:46;;;;;;;30.77;19.52;;;;;;;;;;4975310;28;20081;-66
2024/04/05 03:03:12;;;;;;;30.95;18.95;;;;;;;;;;4975173;28;20023;-67
2024/04/05 03:05:38;;;;;;;31.00;18.98;;;;;;;;;;4975375;28;20026;-67
2024/04/05 03:08:06;;;;;;;31.80;18.63;;;;;;;;;;4977058;28;20122;-66
2024/04/05 03:10:32;;;;;;;29.52;18.02;;;;;;;;;;4977150;28;20038;-67
2024/04/05 03:12:58;;;;;;;29.90;18.73;;;;;;;;;;4976345;28;20101;-67
2024/04/05 03:15:24;;;;;;;28.10;16.98;;;;;;;;;;4978930;28;20490;-67
2024/04/05 03:17:50;;;;;;;25.50;15.35;;;;;;;;;;4979452;28;20040;-67
2024/04/05 03:20:16;;;;;;;27.85;16.60;;;;;;;;;;4982624;28;20033;-67
2024/04/05 03:22:42;;;;;;;25.02;15.40;;;;;;;;;;4979334;28;20517;-67
2024/04/05 03:25:08;;;;;;;23.95;14.80;;;;;;;;;;4979230;28;20094;-67
2024/04/05 03:27:38;;;;;;;24.95;15.55;;;;;;;;;;4978988;28;20185;-66
2024/04/05 03:30:04;;;;;;;26.80;15.45;;;;;;;;;;4981603;28;20023;-66
2024/04/05 03:32:30;;;;;;;23.48;15.40;;;;;;;;;;4980991;28;20034;-66
2024/04/05 03:34:56;;;;;;;24.67;14.10;;;;;;;;;;4978857;28;20041;-66
2024/04/05 03:37:22;;;;;;;25.80;13.63;;;;;;;;;;4978511;28;20038;-65
2024/04/05 03:39:54;;;;;;;24.58;14.15;;;;;;;;;;4982345;28;20019;-66
2024/04/05 03:42:21;;;;;;;22.77;13.00;;;;;;;;;;4981814;28;20026;-65
2024/04/05 03:44:47;;;;;;;22.23;13.63;;;;;;;;;;4982138;28;20027;-65
2024/04/05 03:47:13;;;;;;;20.52;13.15;;;;;;;;;;4978665;28;20027;-64
2024/04/05 03:49:40;;;;;;;19.13;11.77;;;;;;;;;;4978639;28;20101;-65
2024/04/05 03:52:06;;;;;;;19.83;12.10;;;;;;;;;;4980843;28;20031;-65
2024/04/05 03:54:32;;;;;;;20.60;12.32;;;;;;;;;;4980520;28;20097;-64
2024/04/05 03:56:58;;;;;;;17.50;11.07;;;;;;;;;;4978427;28;20050;-66
2024/04/05 03:59:26;;;;;;;17.85;11.88;;;;;;;;;;4978504;28;20023;-63
2024/04/05 04:01:52;;;;;;;19.70;12.02;;;;;;;;;;4978767;28;20101;-65
2024/04/05 04:04:18;;;;;;;20.50;11.35;;;;;;;;;;4981765;28;20053;-66
2024/04/05 04:06:44;;;;;;;16.83;10.50;;;;;;;;;;4978924;28;20371;-66
2024/04/05 04:09:14;;;;;;;19.40;10.98;;;;;;;;;;4978251;28;20030;-66
2024/04/05 04:11:42;;;;;;;16.45;10.50;;;;;;;;;;4978279;28;20055;-67
2024/04/05 04:14:08;;;;;;;16.15;10.55;;;;;;;;;;4980826;28;20097;-65
2024/04/05 04:16:34;;;;;;;17.80;9.90;;;;;;;;;;4979899;28;20105;-65
2024/04/05 04:19:00;;;;;;;17.35;10.73;;;;;;;;;;4978301;28;20047;-65
2024/04/05 04:21:26;;;;;;;15.70;10.48;;;;;;;;;;4977809;28;20586;-66
2024/04/05 04:23:53;;;;;;;17.42;9.80;;;;;;;;;;4981964;28;20102;-66
2024/04/05 04:26:22;;;;;;;20.27;10.60;;;;;;;;;;4981107;28;20029;-67
2024/04/05 04:28:49;;;;;;;14.90;9.20;;;;;;;;;;4981249;28;20031;-67
2024/04/05 04:31:16;;;;;;;16.45;9.98;;;;;;;;;;4977783;28;20110;-66
2024/04/05 04:33:42;;;;;;;14.90;8.90;;;;;;;;;;4976415;28;20042;-66
2024/04/05 04:36:08;;;;;;;16.38;9.23;;;;;;;;;;4980695;28;20145;-66
2024/04/05 04:38:34;;;;;;;15.05;8.98;;;;;;;;;;4979471;28;20026;-67
2024/04/05 04:41:00;;;;;;;15.20;8.52;;;;;;;;;;4977561;28;20019;-65
2024/04/05 04:43:26;;;;;;;16.77;8.55;;;;;;;;;;4978938;28;20019;-66
2024/04/05 04:45:53;;;;;;;20.58;8.95;;;;;;;;;;4980854;28;20090;-66
2024/04/05 04:48:19;;;;;;;15.05;9.30;;;;;;;;;;4980827;28;20022;-62
2024/04/05 04:50:45;;;;;;;17.95;9.40;;;;;;;;;;4977640;28;20027;-66
2024/04/05 04:53:11;;;;;;;42.25;11.70;;;;;;;;;;4977533;28;20026;-64
2024/04/05 04:55:37;;;;;;;19.58;11.52;;;;;;;;;;4977531;28;20153;-65
2024/04/05 04:58:03;;;;;;;22.73;11.93;;;;;;;;;;4979043;28;20054;-66
2024/04/05 05:00:29;;;;;;;25.00;12.77;;;;;;;;;;4979904;28;20435;-67
2024/04/05 05:02:55;;;;;;;40.75;17.77;;;;;;;;;;4977282;28;20033;-65
2024/04/05 05:05:21;;;;;;;36.83;19.65;;;;;;;;;;4977495;28;20430;-66
2024/04/05 05:07:47;;;;;;;37.22;19.42;;;;;;;;;;4977384;28;20107;-66
2024/04/05 05:10:13;;;;;;;36.25;18.02;;;;;;;;;;4987380;28;20029;-66
2024/04/05 05:12:39;;;;;;;32.83;17.92;;;;;;;;;;4978228;28;20030;-67
2024/04/05 05:15:05;;;;;;;34.78;18.30;;;;;;;;;;4977367;28;20034;-67
2024/04/05 05:17:31;;;;;;;32.60;19.50;;;;;;;;;;4977078;28;20034;-67
2024/04/05 05:19:58;;;;;;;34.83;21.23;;;;;;;;;;4978884;28;20383;-70
2024/04/05 05:22:24;;;;;;;32.60;20.52;;;;;;;;;;4980188;28;20029;-68
2024/04/05 05:24:50;;;;;;;32.55;19.90;;;;;;;;;;4977628;28;20011;-68
2024/04/05 05:27:17;;;;;;;33.55;20.58;;;;;;;;;;4977322;28;20066;-68
2024/04/05 05:29:43;;;;;;;31.52;19.35;;;;;;;;;;4978390;28;20085;-68
2024/04/05 05:32:11;;;;;;;31.52;18.52;;;;;;;;;;4980534;28;20034;-68
2024/04/05 05:34:37;;;;;;;32.92;19.27;;;;;;;;;;4978997;28;20473;-68
2024/04/05 05:37:03;;;;;;;32.60;19.77;;;;;;;;;;4976963;28;20610;-68
2024/04/05 05:39:29;;;;;;;32.30;19.00;;;;;;;;;;4977637;28;20133;-69
2024/04/05 05:41:55;;;;;;;36.40;20.70;;;;;;;;;;4979619;28;20102;-68
2024/04/05 05:44:21;;;;;;;39.15;21.42;;;;;;;;;;4992340;28;20023;-67
2024/04/05 05:46:47;;;;;;;38.25;21.40;;;;;;;;;;4981073;28;20019;-68
2024/04/05 05:49:13;;;;;;;33.35;19.55;;;;;;;;;;4977589;28;20077;-68
2024/04/05 05:51:39;;;;;;;35.75;19.35;;;;;;;;;;4976995;28;20082;-69
2024/04/05 05:54:05;;;;;;;28.98;17.92;;;;;;;;;;4979471;28;20023;-69
2024/04/05 05:56:32;;;;;;;31.38;17.85;;;;;;;;;;4978693;28;20733;-68
2024/04/05 05:58:58;;;;;;;28.45;16.83;;;;;;;;;;4997284;28;20049;-68
2024/04/05 06:01:24;;;;;;;30.23;17.10;;;;;;;;;;4988930;28;20471;-68
2024/04/05 06:03:50;;;;;;;26.65;16.15;;;;;;;;;;4990366;28;20022;-68
2024/04/05 06:06:16;;;;;;;27.10;15.38;;;;;;;;;;4992268;28;20530;-68
2024/04/05 06:08:42;;;;;;;28.70;16.23;;;;;;;;;;4991801;28;20100;-69
2024/04/05 06:11:08;;;;;;;29.33;16.13;;;;;;;;;;4991440;28;20461;-69
2024/04/05 06:13:34;;;;;;;23.90;14.45;;;;;;;;;;4991941;28;20022;-68
2024/04/05 06:16:00;;;;;;;25.70;15.10;;;;;;;;;;5007147;28;20117;-69
2024/04/05 06:18:27;;;;;;;26.90;14.90;;;;;;;;;;4992047;28;20386;-69
2024/04/05 06:20:57;;;;;;;24.05;14.48;;;;;;;;;;4991944;28;20029;-68
2024/04/05 06:23:26;;;;;;;27.10;14.85;;;;;;;;;;4991970;28;20026;-67
2024/04/05 06:25:57;;;;;;;21.10;12.73;;;;;;;;;;4992007;28;20509;-68
2024/04/05 06:28:23;;;;;;;22.02;13.40;;;;;;;;;;4992423;28;20034;-68
2024/04/05 06:30:49;;;;;;;22.73;13.18;;;;;;;;;;4991689;28;20033;-68
2024/04/05 06:33:15;;;;;;;21.95;12.57;;;;;;;;;;4991394;28;20037;-68
2024/04/05 06:35:41;;;;;;;24.20;13.68;;;;;;;;;;4991774;28;20030;-68
2024/04/05 06:38:08;;;;;;;21.70;12.43;;;;;;;;;;4991602;28;20070;-69
2024/04/05 06:40:34;;;;;;;20.88;13.05;;;;;;;;;;4991386;28;20510;-69
2024/04/05 06:43:01;;;;;;;19.27;12.45;;;;;;;;;;4991704;28;20018;-69
2024/04/05 06:45:27;;;;;;;21.02;12.82;;;;;;;;;;4991616;28;20042;-69
2024/04/05 06:47:55;;;;;;;19.42;11.82;;;;;;;;;;4990739;28;20045;-69
2024/04/05 06:50:21;;;;;;;22.40;11.90;;;;;;;;;;4991692;28;20105;-69
2024/04/05 06:52:47;;;;;;;21.95;12.75;;;;;;;;;;5006433;28;20141;-68
2024/04/05 06:55:13;;;;;;;21.27;12.88;;;;;;;;;;5006529;28;20022;-69
2024/04/05 06:57:39;;;;;;;16.42;11.13;;;;;;;;;;4991281;28;20041;-69
2024/04/05 07:00:10;;;;;;;21.15;11.70;;;;;;;;;;5006441;28;20029;-68
2024/04/05 07:02:36;;;;;;;18.45;11.43;;;;;;;;;;4991750;28;20406;-68
2024/04/05 07:05:03;;;;;;;17.90;10.95;;;;;;;;;;4991461;28;20023;-68
2024/04/05 07:07:29;;;;;;;18.30;11.02;;;;;;;;;;4991263;28;20037;-69
2024/04/05 07:09:55;;;;;;;19.52;11.68;;;;;;;;;;4991354;28;20031;-69
2024/04/05 07:12:21;;;;;;;20.02;11.75;;;;;;;;;;4991082;28;20406;-68
2024/04/05 07:14:47;;;;;;;18.42;10.95;;;;;;;;;;4991193;28;20034;-67
2024/04/05 07:17:13;;;;;;;18.27;11.38;;;;;;;;;;4991024;28;20030;-68
2024/04/05 07:19:39;;;;;;;15.43;10.82;;;;;;;;;;4991350;28;20103;-69
2024/04/05 07:22:08;;;;;;;19.42;11.02;;;;;;;;;;5005961;28;20019;-69
2024/04/05 07:24:34;;;;;;;17.90;11.18;;;;;;;;;;4991100;28;20494;-69
2024/04/05 07:27:00;;;;;;;16.95;10.20;;;;;;;;;;4985243;28;20510;-69
2024/04/05 07:29:26;;;;;;;16.65;11.30;;;;;;;;;;4971774;28;20058;-69
2024/04/05 07:31:53;;;;;;;16.90;11.07;;;;;;;;;;4971767;28;20039;-69
2024/04/05 07:34:19;;;;;;;16.75;10.40;;;;;;;;;;4987119;28;20391;-68
2024/04/05 07:36:45;;;;;;;19.60;11.48;;;;;;;;;;4971704;28;20023;-69
2024/04/05 07:39:12;;;;;;;15.73;10.23;;;;;;;;;;4971552;28;20027;-69
2024/04/05 07:41:38;;;;;;;16.42;10.40;;;;;;;;;;4978819;28;20072;-68
2024/04/05 07:44:04;;;;;;;17.40;11.07;;;;;;;;;;4990975;28;20034;-69
2024/04/05 07:46:30;;;;;;;17.98;10.68;;;;;;;;;;4991027;28;20445;-69
2024/04/05 07:48:56;;;;;;;19.52;11.07;;;;;;;;;;4991100;28;20026;-69
2024/04/05 07:51:22;;;;;;;15.63;9.82;;;;;;;;;;4990848;28;20369;-68
2024/04/05 07:53:48;;;;;;;17.33;11.02;;;;;;;;;;4990903;28;20023;-69
2024/04/05 07:56:14;;;;;;;17.02;10.20;;;;;;;;;;4990712;28;20046;-69
2024/04/05 07:58:40;;;;;;;16.15;10.38;;;;;;;;;;4990678;28;20026;-68
2024/04/05 08:01:07;;;;;;;14.85;9.88;;;;;;;;;;4993609;28;20026;-70
2024/04/05 08:03:33;;;;;;;16.38;9.82;;;;;;;;;;4993696;28;20026;-68
2024/04/05 08:06:02;;;;;;;14.52;9.65;;;;;;;;;;4993938;28;20057;-69
2024/04/05 08:08:28;;;;;;;15.02;9.70;;;;;;;;;;4993583;28;20030;-69
2024/04/05 08:11:01;;;;;;;16.25;9.25;;;;;;;;;;4993498;28;20034;-70
2024/04/05 08:13:27;;;;;;;13.27;9.15;;;;;;;;;;4993434;28;20057;-69
2024/04/05 08:15:53;;;;;;;14.35;9.07;;;;;;;;;;4993330;28;20097;-69
2024/04/05 08:18:19;;;;;;;14.20;9.10;;;;;;;;;;4993260;28;20023;-69
2024/04/05 08:20:45;;;;;;;15.00;9.40;;;;;;;;;;4993405;28;20072;-69
2024/04/05 08:23:11;;;;;;;15.10;9.40;;;;;;;;;;4993089;28;20027;-69
2024/04/05 08:25:37;;;;;;;15.20;8.25;;;;;;;;;;4993272;28;20557;-69
2024/04/05 08:28:03;;;;;;;14.75;9.45;;;;;;;;;;4993756;28;20026;-69
2024/04/05 08:30:29;;;;;;;15.27;9.45;;;;;;;;;;4993722;28;20065;-69
2024/04/05 08:32:55;;;;;;;13.27;8.38;;;;;;;;;;4993786;28;20429;-69
2024/04/05 08:35:21;;;;;;;14.18;8.90;;;;;;;;;;4993061;28;20101;-69
2024/04/05 08:37:47;;;;;;;14.55;9.10;;;;;;;;;;4992774;28;20026;-69
2024/04/05 08:40:13;;;;;;;12.23;7.93;;;;;;;;;;4993011;28;20358;-69
2024/04/05 08:42:39;;;;;;;14.07;8.73;;;;;;;;;;5007388;28;20019;-69
2024/04/05 08:45:06;;;;;;;12.63;7.63;;;;;;;;;;4992791;28;20101;-69
2024/04/05 08:47:33;;;;;;;10.52;7.50;;;;;;;;;;5007533;28;20031;-69
2024/04/05 08:49:59;;;;;;;11.93;8.02;;;;;;;;;;4993003;28;20351;-69
2024/04/05 08:52:25;;;;;;;11.18;7.60;;;;;;;;;;5007496;28;20121;-68
2024/04/05 08:54:54;;;;;;;12.52;7.90;;;;;;;;;;4992757;28;20489;-69
2024/04/05 08:57:21;;;;;;;12.13;8.00;;;;;;;;;;4992351;28;20088;-69
2024/04/05 08:59:51;;;;;;;12.52;7.40;;;;;;;;;;4992565;28;20114;-68
2024/04/05 09:02:17;;;;;;;12.23;7.45;;;;;;;;;;4992459;28;20034;-69
2024/04/05 09:04:43;;;;;;;11.82;7.50;;;;;;;;;;4993205;28;20027;-69
2024/04/05 09:07:10;;;;;;;10.00;6.85;;;;;;;;;;4994166;28;20072;-68
2024/04/05 09:09:37;;;;;;;9.75;6.55;;;;;;;;;;4993921;28;20109;-69
2024/04/05 09:12:21;;;;;;;10.45;6.68;;;;;;;;;;4993050;28;20157;-69
2024/04/05 09:14:56;;;;;;;9.65;6.40;;;;;;;;;;4994240;28;20042;-68
2024/04/05 09:17:22;;;;;;;9.43;6.80;;;;;;;;;;4993833;28;20030;-69
2024/04/05 09:19:48;;;;;;;9.30;6.65;;;;;;;;;;4993898;28;20018;-69
2024/04/05 09:22:19;;;;;;;9.23;6.10;;;;;;;;;;4993659;28;20046;-68
2024/04/05 09:24:45;;;;;;;10.55;6.40;;;;;;;;;;4994112;28;20030;-69
2024/04/05 09:27:12;;;;;;;10.68;6.75;;;;;;;;;;4993714;28;20395;-69
2024/04/05 09:29:38;;;;;;;10.00;6.35;;;;;;;;;;4993687;28;20030;-69
2024/04/05 09:32:04;;;;;;;9.48;6.35;;;;;;;;;;4993583;28;20439;-69
2024/04/05 09:34:32;;;;;;;8.95;5.82;;;;;;;;;;4993631;28;20113;-68
2024/04/05 09:36:58;;;;;;;10.02;6.03;;;;;;;;;;4993365;28;20076;-69
2024/04/05 09:39:25;;;;;;;9.02;6.07;;;;;;;;;;4993627;28;20018;-68
2024/04/05 09:41:56;;;;;;;12.90;6.97;;;;;;;;;;4993248;28;20023;-69
2024/04/05 09:44:23;;;;;;;9.55;5.72;;;;;;;;;;5003376;28;20045;-68
2024/04/05 09:46:49;;;;;;;9.82;6.07;;;;;;;;;;4995270;28;20054;-69
2024/04/05 09:49:15;;;;;;;9.60;5.82;;;;;;;;;;5011455;28;20069;-68
2024/04/05 09:51:46;;;;;;;8.30;5.72;;;;;;;;;;5006331;28;20420;-67
2024/04/05 09:54:19;;;;;;;9.40;5.35;;;;;;;;;;4993109;28;20030;-69
2024/04/05 09:56:45;;;;;;;8.60;5.30;;;;;;;;;;4992717;28;20030;-68
2024/04/05 09:59:13;;;;;;;8.82;5.63;;;;;;;;;;4993109;28;20054;-69
2024/04/05 10:01:39;;;;;;;9.32;5.60;;;;;;;;;;5010215;28;20028;-69
2024/04/05 10:04:07;;;;;;;8.00;4.85;;;;;;;;;;5012686;28;20022;-68
2024/04/05 10:06:40;;;;;;;8.60;5.10;;;;;;;;;;5012552;28;20018;-69
2024/04/05 10:09:15;;;;;;;6.40;4.68;;;;;;;;;;5012597;28;20393;-68
2024/04/05 10:11:41;;;;;;;8.65;4.72;;;;;;;;;;5011098;28;20049;-68
2024/04/05 10:14:08;;;;;;;7.43;4.63;;;;;;;;;;5012297;28;20699;-68
2024/04/05 10:16:34;;;;;;;7.50;5.00;;;;;;;;;;5009933;28;20022;-69
2024/04/05 10:19:12;;;;;;;7.30;4.50;;;;;;;;;;4973289;28;20027;-69
2024/04/05 10:21:38;;;;;;;8.05;4.45;;;;;;;;;;4972782;28;20019;-68
2024/04/05 10:24:08;;;;;;;6.05;4.18;;;;;;;;;;4973094;28;20034;-69
2024/04/05 10:26:34;;;;;;;7.00;4.97;;;;;;;;;;4972908;28;20503;-68
2024/04/05 10:29:04;;;;;;;6.30;4.15;;;;;;;;;;4973178;28;20034;-69
2024/04/05 10:31:36;;;;;;;7.22;4.47;;;;;;;;;;4987744;28;20118;-69
2024/04/05 10:34:03;;;;;;;6.90;4.45;;;;;;;;;;4972983;28;20054;-69
2024/04/05 10:36:31;;;;;;;5.78;3.78;;;;;;;;;;4973058;28;20030;-69
2024/04/05 10:38:57;;;;;;;6.55;4.72;;;;;;;;;;4972787;28;20035;-68
2024/04/05 10:41:23;;;;;;;6.25;3.88;;;;;;;;;;4973170;28;20019;-69
2024/04/05 10:43:49;;;;;;;5.93;3.80;;;;;;;;;;4972968;28;20023;-68
2024/04/05 10:46:17;;;;;;;4.78;3.63;;;;;;;;;;4971761;28;20059;-69
2024/04/05 10:48:43;;;;;;;7.65;4.15;;;;;;;;;;4972786;28;20065;-69
2024/04/05 10:51:09;;;;;;;5.60;3.40;;;;;;;;;;4981088;28;20030;-69
2024/04/05 10:53:35;;;;;;;6.90;4.00;;;;;;;;;;5011572;28;20030;-68
2024/04/05 10:56:03;;;;;;;6.28;3.92;;;;;;;;;;5011856;28;20049;-69
2024/04/05 10:58:29;;;;;;;6.43;3.50;;;;;;;;;;5011726;28;20025;-69
2024/04/05 11:00:55;;;;;;;5.45;3.50;;;;;;;;;;5011758;28;20030;-69
2024/04/05 11:03:21;;;;;;;6.28;3.30;;;;;;;;;;5010146;28;20026;-68
2024/04/05 11:05:47;;;;;;;5.35;3.22;;;;;;;;;;5011778;28;20030;-69
2024/04/05 11:08:17;;;;;;;6.90;3.28;;;;;;;;;;5011453;28;20540;-68
2024/04/05 11:10:43;;;;;;;5.65;3.88;;;;;;;;;;5011837;28;20033;-68
2024/04/05 11:13:27;;;;;;;4.70;3.35;;;;;;;;;;5011544;28;20025;-69
2024/04/05 11:16:03;;;;;;;5.28;3.42;;;;;;;;;;5011717;28;20022;-69
2024/04/05 11:18:36;;;;;;;5.38;3.33;;;;;;;;;;4995454;28;20057;-69
2024/04/05 11:21:02;;;;;;;4.60;3.10;;;;;;;;;;4992152;28;20054;-69
2024/04/05 11:23:28;;;;;;;5.07;3.35;;;;;;;;;;4991951;28;20038;-68
2024/04/05 11:25:56;;;;;;;5.10;2.95;;;;;;;;;;4992007;28;20031;-69
2024/04/05 11:28:25;;;;;;;4.63;3.42;;;;;;;;;;4991969;28;20057;-68
2024/04/05 11:30:52;;;;;;;6.13;3.38;;;;;;;;;;4991827;28;20022;-68
2024/04/05 11:33:18;;;;;;;3.65;2.72;;;;;;;;;;4991673;28;20093;-68
2024/04/05 11:35:44;;;;;;;4.30;3.08;;;;;;;;;;4995591;28;20026;-69
2024/04/05 11:38:11;;;;;;;5.78;3.35;;;;;;;;;;4995340;28;20026;-69
2024/04/05 11:40:37;;;;;;;4.15;3.47;;;;;;;;;;4995592;28;20033;-68
2024/04/05 11:43:04;;;;;;;4.72;3.13;;;;;;;;;;4995245;28;20023;-68
2024/04/05 11:45:30;;;;;;;5.75;3.22;;;;;;;;;;4995495;28;20021;-68
2024/04/05 11:47:56;;;;;;;5.22;2.90;;;;;;;;;;4995441;28;20069;-68
2024/04/05 11:50:23;;;;;;;4.07;3.00;;;;;;;;;;4995620;28;20053;-70
2024/04/05 11:52:49;;;;;;;3.50;2.75;;;;;;;;;;4995179;28;20502;-69
2024/04/05 11:55:16;;;;;;;3.88;2.88;;;;;;;;;;4995392;28;20088;-68
2024/04/05 11:57:42;;;;;;;4.70;2.85;;;;;;;;;;4996070;28;20109;-69
2024/04/05 12:00:12;;;;;;;3.92;3.00;;;;;;;;;;4995166;28;20622;-68
2024/04/05 12:02:39;;;;;;;3.67;2.77;;;;;;;;;;4994864;28;20490;-68
2024/04/05 12:05:06;;;;;;;6.10;3.92;;;;;;;;;;4995209;28;20253;-68
2024/04/05 12:07:32;;;;;;;3.97;3.20;;;;;;;;;;4995096;28;20123;-68
2024/04/05 12:09:58;;;;;;;4.88;3.03;;;;;;;;;;4994980;28;20415;-68
2024/04/05 12:12:24;;;;;;;4.40;2.75;;;;;;;;;;4995025;28;20027;-68
2024/04/05 12:14:50;;;;;;;4.70;3.03;;;;;;;;;;4994877;28;20035;-68
2024/04/05 12:17:16;;;;;;;5.10;3.38;;;;;;;;;;4994801;28;20030;-68
2024/04/05 12:19:42;;;;;;;3.65;2.53;;;;;;;;;;4995256;28;20113;-69
2024/04/05 12:22:08;;;;;;;3.47;2.60;;;;;;;;;;4995054;28;20529;-69
2024/04/05 12:24:34;;;;;;;3.30;2.65;;;;;;;;;;4995267;28;20027;-69
2024/04/05 12:27:00;;;;;;;3.95;2.88;;;;;;;;;;4995258;28;20022;-69
2024/04/05 12:29:27;;;;;;;4.20;2.80;;;;;;;;;;4995058;28;20054;-69
2024/04/05 12:31:54;;;;;;;5.03;3.00;;;;;;;;;;4995026;28;20112;-68
2024/04/05 12:34:20;;;;;;;3.83;2.67;;;;;;;;;;4994943;28;20018;-68
2024/04/05 12:36:46;;;;;;;3.58;2.47;;;;;;;;;;4994976;28;20077;-67
2024/04/05 12:39:29;;;;;;;3.60;2.80;;;;;;;;;;4995014;28;20026;-68
2024/04/05 12:41:55;;;;;;;3.47;2.40;;;;;;;;;;4994656;28;20022;-69
2024/04/05 12:44:22;;;;;;;4.15;2.42;;;;;;;;;;4994892;28;20089;-69
2024/04/05 12:46:51;;;;;;;5.15;2.95;;;;;;;;;;4994591;28;20077;-69
2024/04/05 12:49:17;;;;;;;3.55;2.63;;;;;;;;;;4994979;28;20112;-68
2024/04/05 12:51:43;;;;;;;3.08;2.42;;;;;;;;;;4994436;28;20022;-68
2024/04/05 12:54:09;;;;;;;4.93;2.60;;;;;;;;;;4994598;28;20605;-69
2024/04/05 12:56:35;;;;;;;3.97;2.72;;;;;;;;;;4994197;28;20065;-69
2024/04/05 12:59:01;;;;;;;2.83;2.35;;;;;;;;;;4994779;28;20057;-69
2024/04/05 13:01:27;;;;;;;3.85;2.35;;;;;;;;;;4994225;28;20437;-68
2024/04/05 13:03:53;;;;;;;3.03;2.50;;;;;;;;;;4994563;28;20018;-68
2024/04/05 13:06:19;;;;;;;3.92;2.70;;;;;;;;;;4994590;28;20045;-69
2024/04/05 13:08:46;;;;;;;3.63;2.45;;;;;;;;;;4994528;28;20645;-68
2024/04/05 13:11:14;;;;;;;2.55;2.30;;;;;;;;;;4994069;28;20035;-68
2024/04/05 13:13:40;;;;;;;2.97;2.10;;;;;;;;;;4994523;28;20657;-69
2024/04/05 13:16:10;;;;;;;2.45;2.25;;;;;;;;;;4994069;28;20053;-68
2024/04/05 13:18:37;;;;;;;6.22;2.75;;;;;;;;;;4993795;28;20113;-67
2024/04/05 13:21:06;;;;;;;9.07;3.20;;;;;;;;;;4993961;28;20102;-67
2024/04/05 13:23:35;;;;;;;4.47;2.38;;;;;;;;;;4993773;28;20026;-68
2024/04/05 13:26:08;;;;;;;3.22;2.25;;;;;;;;;;4993973;28;20026;-67
2024/04/05 13:28:34;;;;;;;3.70;1.95;;;;;;;;;;4994156;28;20026;-69
2024/04/05 13:31:01;;;;;;;7.32;2.58;;;;;;;;;;4993568;28;20486;-68
2024/04/05 13:33:27;;;;;;;7.60;2.50;;;;;;;;;;4993847;28;20038;-70
2024/04/05 13:35:55;;;;;;;4.45;2.10;;;;;;;;;;5006825;28;20158;-69
2024/04/05 13:38:21;;;;;;;6.55;2.92;;;;;;;;;;5012988;28;20117;-69
2024/04/05 13:40:47;;;;;;;3.50;1.88;;;;;;;;;;5008501;28;20398;-68
2024/04/05 13:43:13;;;;;;;6.47;2.50;;;;;;;;;;4993066;28;20027;-68
2024/04/05 13:45:39;;;;;;;4.00;2.22;;;;;;;;;;5005425;28;20393;-70
2024/04/05 13:48:06;;;;;;;6.85;2.30;;;;;;;;;;5013318;28;20041;-69
2024/04/05 13:50:32;;;;;;;6.22;2.17;;;;;;;;;;5006569;28;20074;-68
2024/04/05 13:52:59;;;;;;;7.32;1.98;;;;;;;;;;5001862;28;20034;-69
2024/04/05 13:55:25;;;;;;;3.47;1.90;;;;;;;;;;5004515;28;20022;-70
2024/04/05 13:57:51;;;;;;;3.33;1.70;;;;;;;;;;5000498;28;20038;-68
2024/04/05 14:00:17;;;;;;;4.18;2.05;;;;;;;;;;4996408;28;20046;-69
2024/04/05 14:02:44;;;;;;;5.72;2.10;;;;;;;;;;4992641;28;20645;-67
2024/04/05 14:05:10;;;;;;;3.35;1.83;;;;;;;;;;4998748;28;20105;-69
2024/04/05 14:07:37;;;;;;;11.05;1.90;;;;;;;;;;5011010;28;20022;-70
2024/04/05 14:10:03;;;;;;;6.28;1.67;;;;;;;;;;5002442;28;20486;-70
2024/04/05 14:12:29;;;;;;;4.72;1.98;;;;;;;;;;5012494;28;20062;-70
2024/04/05 14:14:55;;;;;;;5.68;2.28;;;;;;;;;;5001793;28;20131;-69
2024/04/05 14:17:21;;;;;;;7.70;2.33;;;;;;;;;;5006323;28;20033;-68
2024/04/05 14:19:48;;;;;;;6.97;2.50;;;;;;;;;;4991393;28;20022;-70
2024/04/05 14:22:14;;;;;;;7.93;2.38;;;;;;;;;;5004896;28;20045;-71